sensor_id;sensor_type;location;lat;lon;timestamp;P1;durP1;ratioP1;P2;durP2;ratioP2
34433;SDS011;34290;48.562;13.384;2023-04-12T00:00:31;38.97;;;5.63;;
34433;SDS011;34290;48.562;13.384;2023-04-12T00:02:59;22.23;;;4.53;;
34433;SDS011;34290;48.562;13.384;2023-04-12T00:05:27;47.43;;;5.30;;
34433;SDS011;34290;48.562;13.384;2023-04-12T00:07:56;27.83;;;4.70;;
34433;SDS011;34290;48.562;13.384;2023-04-12T00:10:25;13.40;;;4.40;;
34433;SDS011;34290;48.562;13.384;2023-04-12T00:12:52;17.67;;;4.30;;
34433;SDS011;34290;48.562;13.384;2023-04-12T00:15:19;28.03;;;5.03;;
34433;SDS011;34290;48.562;13.384;2023-04-12T00:17:46;21.63;;;4.77;;
34433;SDS011;34290;48.562;13.384;2023-04-12T00:20:13;13.70;;;4.77;;
34433;SDS011;34290;48.562;13.384;2023-04-12T00:22:40;15.40;;;4.80;;
34433;SDS011;34290;48.562;13.384;2023-04-12T00:25:09;25.00;;;4.70;;
34433;SDS011;34290;48.562;13.384;2023-04-12T00:27:36;9.03;;;4.87;;
34433;SDS011;34290;48.562;13.384;2023-04-12T00:30:04;22.60;;;4.97;;
34433;SDS011;34290;48.562;13.384;2023-04-12T00:32:31;22.33;;;5.73;;
34433;SDS011;34290;48.562;13.384;2023-04-12T00:34:58;16.10;;;5.63;;
34433;SDS011;34290;48.562;13.384;2023-04-12T00:37:25;12.07;;;4.70;;
34433;SDS011;34290;48.562;13.384;2023-04-12T00:39:52;23.27;;;5.23;;
34433;SDS011;34290;48.562;13.384;2023-04-12T00:42:21;14.37;;;4.77;;
34433;SDS011;34290;48.562;13.384;2023-04-12T00:44:48;18.77;;;5.63;;
34433;SDS011;34290;48.562;13.384;2023-04-12T00:47:15;13.13;;;4.73;;
34433;SDS011;34290;48.562;13.384;2023-04-12T00:49:42;21.30;;;4.73;;
34433;SDS011;34290;48.562;13.384;2023-04-12T00:52:10;9.90;;;4.93;;
34433;SDS011;34290;48.562;13.384;2023-04-12T00:54:39;11.53;;;5.00;;
34433;SDS011;34290;48.562;13.384;2023-04-12T00:57:07;17.90;;;5.20;;
34433;SDS011;34290;48.562;13.384;2023-04-12T00:59:36;9.43;;;4.80;;
34433;SDS011;34290;48.562;13.384;2023-04-12T01:02:03;9.50;;;4.87;;
34433;SDS011;34290;48.562;13.384;2023-04-12T01:04:31;8.80;;;5.10;;
34433;SDS011;34290;48.562;13.384;2023-04-12T01:07:05;13.83;;;6.67;;
34433;SDS011;34290;48.562;13.384;2023-04-12T01:09:42;37.77;;;7.07;;
34433;SDS011;34290;48.562;13.384;2023-04-12T01:12:19;42.80;;;7.57;;
34433;SDS011;34290;48.562;13.384;2023-04-12T01:15:01;21.80;;;6.73;;
34433;SDS011;34290;48.562;13.384;2023-04-12T01:17:32;36.43;;;6.57;;
34433;SDS011;34290;48.562;13.384;2023-04-12T01:20:03;182.30;;;11.70;;
34433;SDS011;34290;48.562;13.384;2023-04-12T01:22:44;139.63;;;10.03;;
34433;SDS011;34290;48.562;13.384;2023-04-12T01:25:44;67.53;;;6.53;;
34433;SDS011;34290;48.562;13.384;2023-04-12T01:28:19;18.13;;;5.27;;
34433;SDS011;34290;48.562;13.384;2023-04-12T01:30:48;17.37;;;5.07;;
34433;SDS011;34290;48.562;13.384;2023-04-12T01:33:16;25.23;;;6.03;;
34433;SDS011;34290;48.562;13.384;2023-04-12T01:35:44;34.50;;;5.77;;
34433;SDS011;34290;48.562;13.384;2023-04-12T01:38:12;56.30;;;7.13;;
34433;SDS011;34290;48.562;13.384;2023-04-12T01:40:39;69.33;;;8.57;;
34433;SDS011;34290;48.562;13.384;2023-04-12T01:43:07;48.03;;;7.80;;
34433;SDS011;34290;48.562;13.384;2023-04-12T01:45:36;64.17;;;8.53;;
34433;SDS011;34290;48.562;13.384;2023-04-12T01:48:05;144.20;;;12.40;;
34433;SDS011;34290;48.562;13.384;2023-04-12T01:50:38;116.27;;;11.30;;
34433;SDS011;34290;48.562;13.384;2023-04-12T01:53:16;120.43;;;10.63;;
34433;SDS011;34290;48.562;13.384;2023-04-12T01:55:44;184.70;;;11.70;;
34433;SDS011;34290;48.562;13.384;2023-04-12T01:58:14;157.90;;;11.63;;
34433;SDS011;34290;48.562;13.384;2023-04-12T02:00:49;83.50;;;8.63;;
34433;SDS011;34290;48.562;13.384;2023-04-12T02:03:17;71.50;;;9.07;;
34433;SDS011;34290;48.562;13.384;2023-04-12T02:05:45;81.53;;;9.37;;
34433;SDS011;34290;48.562;13.384;2023-04-12T02:08:12;219.33;;;15.70;;
34433;SDS011;34290;48.562;13.384;2023-04-12T02:10:40;310.90;;;19.07;;
34433;SDS011;34290;48.562;13.384;2023-04-12T02:13:07;246.17;;;15.43;;
34433;SDS011;34290;48.562;13.384;2023-04-12T02:15:34;87.17;;;9.63;;
34433;SDS011;34290;48.562;13.384;2023-04-12T02:18:04;79.90;;;8.53;;
34433;SDS011;34290;48.562;13.384;2023-04-12T02:20:31;152.83;;;13.10;;
34433;SDS011;34290;48.562;13.384;2023-04-12T02:22:59;143.03;;;12.87;;
34433;SDS011;34290;48.562;13.384;2023-04-12T02:25:26;209.63;;;16.00;;
34433;SDS011;34290;48.562;13.384;2023-04-12T02:27:54;243.03;;;15.93;;
34433;SDS011;34290;48.562;13.384;2023-04-12T02:30:21;212.43;;;15.03;;
34433;SDS011;34290;48.562;13.384;2023-04-12T02:32:48;140.20;;;10.93;;
34433;SDS011;34290;48.562;13.384;2023-04-12T02:35:17;232.83;;;14.77;;
34433;SDS011;34290;48.562;13.384;2023-04-12T02:37:44;143.63;;;11.63;;
34433;SDS011;34290;48.562;13.384;2023-04-12T02:40:12;81.83;;;8.97;;
34433;SDS011;34290;48.562;13.384;2023-04-12T02:42:40;78.80;;;9.67;;
34433;SDS011;34290;48.562;13.384;2023-04-12T02:45:08;58.50;;;8.13;;
34433;SDS011;34290;48.562;13.384;2023-04-12T02:47:35;89.67;;;8.37;;
34433;SDS011;34290;48.562;13.384;2023-04-12T02:50:04;291.60;;;15.30;;
34433;SDS011;34290;48.562;13.384;2023-04-12T02:52:33;56.97;;;7.47;;
34433;SDS011;34290;48.562;13.384;2023-04-12T02:55:00;55.40;;;7.93;;
34433;SDS011;34290;48.562;13.384;2023-04-12T02:57:27;106.73;;;9.13;;
34433;SDS011;34290;48.562;13.384;2023-04-12T02:59:54;99.70;;;9.47;;
34433;SDS011;34290;48.562;13.384;2023-04-12T03:02:22;97.50;;;10.83;;
34433;SDS011;34290;48.562;13.384;2023-04-12T03:04:49;69.33;;;8.57;;
34433;SDS011;34290;48.562;13.384;2023-04-12T03:07:17;96.30;;;9.20;;
34433;SDS011;34290;48.562;13.384;2023-04-12T03:09:46;121.13;;;10.20;;
34433;SDS011;34290;48.562;13.384;2023-04-12T03:12:14;98.67;;;9.70;;
34433;SDS011;34290;48.562;13.384;2023-04-12T03:14:41;82.67;;;8.77;;
34433;SDS011;34290;48.562;13.384;2023-04-12T03:17:08;108.37;;;10.30;;
34433;SDS011;34290;48.562;13.384;2023-04-12T03:19:36;39.30;;;6.67;;
34433;SDS011;34290;48.562;13.384;2023-04-12T03:22:03;136.47;;;10.77;;
34433;SDS011;34290;48.562;13.384;2023-04-12T03:24:31;113.50;;;9.83;;
34433;SDS011;34290;48.562;13.384;2023-04-12T03:27:01;70.27;;;7.67;;
34433;SDS011;34290;48.562;13.384;2023-04-12T03:29:28;50.40;;;7.27;;
34433;SDS011;34290;48.562;13.384;2023-04-12T03:31:55;57.27;;;7.83;;
34433;SDS011;34290;48.562;13.384;2023-04-12T03:34:23;60.00;;;8.30;;
34433;SDS011;34290;48.562;13.384;2023-04-12T03:36:51;74.33;;;8.20;;
34433;SDS011;34290;48.562;13.384;2023-04-12T03:39:19;35.93;;;7.20;;
34433;SDS011;34290;48.562;13.384;2023-04-12T03:41:46;57.07;;;7.73;;
34433;SDS011;34290;48.562;13.384;2023-04-12T03:44:14;98.80;;;8.33;;
34433;SDS011;34290;48.562;13.384;2023-04-12T03:46:41;64.47;;;8.30;;
34433;SDS011;34290;48.562;13.384;2023-04-12T03:49:09;42.33;;;7.50;;
34433;SDS011;34290;48.562;13.384;2023-04-12T03:51:36;144.20;;;10.97;;
34433;SDS011;34290;48.562;13.384;2023-04-12T03:54:07;75.67;;;8.73;;
34433;SDS011;34290;48.562;13.384;2023-04-12T03:56:34;47.20;;;6.77;;
34433;SDS011;34290;48.562;13.384;2023-04-12T03:59:02;36.43;;;6.23;;
34433;SDS011;34290;48.562;13.384;2023-04-12T04:01:31;74.27;;;8.27;;
34433;SDS011;34290;48.562;13.384;2023-04-12T04:03:58;41.83;;;7.40;;
34433;SDS011;34290;48.562;13.384;2023-04-12T04:06:25;39.93;;;6.33;;
34433;SDS011;34290;48.562;13.384;2023-04-12T04:08:54;64.40;;;7.67;;
34433;SDS011;34290;48.562;13.384;2023-04-12T04:11:21;63.10;;;7.43;;
34433;SDS011;34290;48.562;13.384;2023-04-12T04:13:49;38.80;;;6.93;;
34433;SDS011;34290;48.562;13.384;2023-04-12T04:16:16;43.07;;;7.00;;
34433;SDS011;34290;48.562;13.384;2023-04-12T04:18:44;24.47;;;6.07;;
34433;SDS011;34290;48.562;13.384;2023-04-12T04:21:11;50.57;;;6.97;;
34433;SDS011;34290;48.562;13.384;2023-04-12T04:23:39;38.47;;;6.40;;
34433;SDS011;34290;48.562;13.384;2023-04-12T04:26:09;60.33;;;8.10;;
34433;SDS011;34290;48.562;13.384;2023-04-12T04:28:36;28.40;;;7.10;;
34433;SDS011;34290;48.562;13.384;2023-04-12T04:31:06;61.30;;;7.57;;
34433;SDS011;34290;48.562;13.384;2023-04-12T04:33:34;51.53;;;8.03;;
34433;SDS011;34290;48.562;13.384;2023-04-12T04:36:03;56.83;;;8.00;;
34433;SDS011;34290;48.562;13.384;2023-04-12T04:38:31;72.40;;;8.00;;
34433;SDS011;34290;48.562;13.384;2023-04-12T04:40:58;83.97;;;8.77;;
34433;SDS011;34290;48.562;13.384;2023-04-12T04:43:27;60.13;;;7.50;;
34433;SDS011;34290;48.562;13.384;2023-04-12T04:45:55;66.67;;;7.83;;
34433;SDS011;34290;48.562;13.384;2023-04-12T04:48:22;59.97;;;7.30;;
34433;SDS011;34290;48.562;13.384;2023-04-12T04:50:50;33.63;;;6.60;;
34433;SDS011;34290;48.562;13.384;2023-04-12T04:53:21;46.20;;;8.60;;
34433;SDS011;34290;48.562;13.384;2023-04-12T04:55:55;56.87;;;8.90;;
34433;SDS011;34290;48.562;13.384;2023-04-12T04:58:23;47.87;;;8.00;;
34433;SDS011;34290;48.562;13.384;2023-04-12T05:00:50;46.50;;;7.23;;
34433;SDS011;34290;48.562;13.384;2023-04-12T05:03:21;30.30;;;7.93;;
34433;SDS011;34290;48.562;13.384;2023-04-12T05:05:52;75.33;;;9.60;;
34433;SDS011;34290;48.562;13.384;2023-04-12T05:08:21;35.27;;;7.87;;
34433;SDS011;34290;48.562;13.384;2023-04-12T05:10:49;43.20;;;7.93;;
34433;SDS011;34290;48.562;13.384;2023-04-12T05:13:17;86.13;;;9.73;;
34433;SDS011;34290;48.562;13.384;2023-04-12T05:15:44;67.03;;;9.73;;
34433;SDS011;34290;48.562;13.384;2023-04-12T05:18:11;80.43;;;9.60;;
34433;SDS011;34290;48.562;13.384;2023-04-12T05:20:38;95.67;;;11.10;;
34433;SDS011;34290;48.562;13.384;2023-04-12T05:23:05;85.73;;;10.63;;
34433;SDS011;34290;48.562;13.384;2023-04-12T05:25:34;48.17;;;9.07;;
34433;SDS011;34290;48.562;13.384;2023-04-12T05:28:01;48.07;;;8.47;;
34433;SDS011;34290;48.562;13.384;2023-04-12T05:30:28;99.90;;;9.03;;
34433;SDS011;34290;48.562;13.384;2023-04-12T05:32:55;113.37;;;11.03;;
34433;SDS011;34290;48.562;13.384;2023-04-12T05:35:23;148.87;;;11.73;;
34433;SDS011;34290;48.562;13.384;2023-04-12T05:37:50;235.40;;;14.00;;
34433;SDS011;34290;48.562;13.384;2023-04-12T05:40:17;45.87;;;8.37;;
34433;SDS011;34290;48.562;13.384;2023-04-12T05:42:45;37.07;;;7.83;;
34433;SDS011;34290;48.562;13.384;2023-04-12T05:45:12;123.73;;;11.90;;
34433;SDS011;34290;48.562;13.384;2023-04-12T05:47:39;60.93;;;8.77;;
34433;SDS011;34290;48.562;13.384;2023-04-12T05:50:06;196.87;;;12.67;;
34433;SDS011;34290;48.562;13.384;2023-04-12T05:52:35;65.60;;;8.63;;
34433;SDS011;34290;48.562;13.384;2023-04-12T05:55:02;31.73;;;7.30;;
34433;SDS011;34290;48.562;13.384;2023-04-12T05:57:30;36.63;;;8.70;;
34433;SDS011;34290;48.562;13.384;2023-04-12T05:59:58;38.87;;;10.13;;
34433;SDS011;34290;48.562;13.384;2023-04-12T06:02:25;96.50;;;10.23;;
34433;SDS011;34290;48.562;13.384;2023-04-12T06:04:52;24.00;;;8.23;;
34433;SDS011;34290;48.562;13.384;2023-04-12T06:07:20;21.30;;;8.33;;
34433;SDS011;34290;48.562;13.384;2023-04-12T06:09:47;23.60;;;9.57;;
34433;SDS011;34290;48.562;13.384;2023-04-12T06:12:14;22.73;;;9.43;;
34433;SDS011;34290;48.562;13.384;2023-04-12T06:14:41;29.17;;;10.57;;
34433;SDS011;34290;48.562;13.384;2023-04-12T06:17:09;27.73;;;10.23;;
34433;SDS011;34290;48.562;13.384;2023-04-12T06:19:36;25.20;;;10.63;;
34433;SDS011;34290;48.562;13.384;2023-04-12T06:22:03;26.50;;;10.83;;
34433;SDS011;34290;48.562;13.384;2023-04-12T06:24:30;25.13;;;11.10;;
34433;SDS011;34290;48.562;13.384;2023-04-12T06:26:57;23.33;;;10.67;;
34433;SDS011;34290;48.562;13.384;2023-04-12T06:29:24;24.23;;;11.27;;
34433;SDS011;34290;48.562;13.384;2023-04-12T06:31:51;23.70;;;11.03;;
34433;SDS011;34290;48.562;13.384;2023-04-12T06:34:20;27.43;;;11.37;;
34433;SDS011;34290;48.562;13.384;2023-04-12T06:36:47;23.93;;;11.63;;
34433;SDS011;34290;48.562;13.384;2023-04-12T06:39:14;24.50;;;10.70;;
34433;SDS011;34290;48.562;13.384;2023-04-12T06:41:41;25.33;;;10.87;;
34433;SDS011;34290;48.562;13.384;2023-04-12T06:44:11;21.27;;;10.77;;
34433;SDS011;34290;48.562;13.384;2023-04-12T06:46:38;19.90;;;10.77;;
34433;SDS011;34290;48.562;13.384;2023-04-12T06:49:05;22.17;;;10.30;;
34433;SDS011;34290;48.562;13.384;2023-04-12T06:51:34;20.90;;;10.53;;
34433;SDS011;34290;48.562;13.384;2023-04-12T06:54:02;19.67;;;10.27;;
34433;SDS011;34290;48.562;13.384;2023-04-12T06:56:29;19.20;;;9.90;;
34433;SDS011;34290;48.562;13.384;2023-04-12T06:58:56;17.50;;;8.83;;
34433;SDS011;34290;48.562;13.384;2023-04-12T07:01:23;19.17;;;9.57;;
34433;SDS011;34290;48.562;13.384;2023-04-12T07:03:50;16.93;;;9.60;;
34433;SDS011;34290;48.562;13.384;2023-04-12T07:06:18;15.90;;;8.70;;
34433;SDS011;34290;48.562;13.384;2023-04-12T07:08:46;17.80;;;9.60;;
34433;SDS011;34290;48.562;13.384;2023-04-12T07:11:13;19.30;;;10.13;;
34433;SDS011;34290;48.562;13.384;2023-04-12T07:13:41;15.17;;;8.87;;
34433;SDS011;34290;48.562;13.384;2023-04-12T07:16:08;15.27;;;8.57;;
34433;SDS011;34290;48.562;13.384;2023-04-12T07:18:35;12.30;;;7.90;;
34433;SDS011;34290;48.562;13.384;2023-04-12T07:21:04;15.47;;;8.43;;
34433;SDS011;34290;48.562;13.384;2023-04-12T07:23:31;13.17;;;8.13;;
34433;SDS011;34290;48.562;13.384;2023-04-12T07:26:00;15.30;;;8.07;;
34433;SDS011;34290;48.562;13.384;2023-04-12T07:28:27;13.50;;;7.23;;
34433;SDS011;34290;48.562;13.384;2023-04-12T07:30:54;13.20;;;7.57;;
34433;SDS011;34290;48.562;13.384;2023-04-12T07:33:23;12.40;;;6.57;;
34433;SDS011;34290;48.562;13.384;2023-04-12T07:35:50;11.27;;;6.90;;
34433;SDS011;34290;48.562;13.384;2023-04-12T07:38:17;11.03;;;6.37;;
34433;SDS011;34290;48.562;13.384;2023-04-12T07:40:44;10.37;;;5.90;;
34433;SDS011;34290;48.562;13.384;2023-04-12T07:43:12;11.27;;;6.27;;
34433;SDS011;34290;48.562;13.384;2023-04-12T07:45:41;10.47;;;6.40;;
34433;SDS011;34290;48.562;13.384;2023-04-12T07:48:09;11.40;;;6.20;;
34433;SDS011;34290;48.562;13.384;2023-04-12T07:50:36;12.40;;;6.43;;
34433;SDS011;34290;48.562;13.384;2023-04-12T07:55:46;11.30;;;6.40;;
34433;SDS011;34290;48.562;13.384;2023-04-12T07:58:15;10.90;;;6.37;;
34433;SDS011;34290;48.562;13.384;2023-04-12T08:00:43;11.13;;;6.00;;
34433;SDS011;34290;48.562;13.384;2023-04-12T08:03:10;10.27;;;6.47;;
34433;SDS011;34290;48.562;13.384;2023-04-12T08:05:42;11.57;;;6.43;;
34433;SDS011;34290;48.562;13.384;2023-04-12T08:08:09;8.70;;;5.67;;
34433;SDS011;34290;48.562;13.384;2023-04-12T08:10:37;9.73;;;5.95;;
34433;SDS011;34290;48.562;13.384;2023-04-12T08:13:04;8.95;;;5.68;;
34433;SDS011;34290;48.562;13.384;2023-04-12T08:15:34;9.55;;;5.90;;
34433;SDS011;34290;48.562;13.384;2023-04-12T08:18:01;10.77;;;5.88;;
34433;SDS011;34290;48.562;13.384;2023-04-12T08:20:28;9.07;;;6.03;;
34433;SDS011;34290;48.562;13.384;2023-04-12T08:22:55;11.48;;;6.05;;
34433;SDS011;34290;48.562;13.384;2023-04-12T08:25:22;11.00;;;5.97;;
34433;SDS011;34290;48.562;13.384;2023-04-12T08:27:49;14.80;;;6.10;;
34433;SDS011;34290;48.562;13.384;2023-04-12T08:30:17;12.50;;;5.90;;
34433;SDS011;34290;48.562;13.384;2023-04-12T08:32:45;17.38;;;6.25;;
34433;SDS011;34290;48.562;13.384;2023-04-12T08:35:13;12.30;;;6.43;;
34433;SDS011;34290;48.562;13.384;2023-04-12T08:37:40;13.65;;;6.32;;
34433;SDS011;34290;48.562;13.384;2023-04-12T08:40:07;11.43;;;6.20;;
34433;SDS011;34290;48.562;13.384;2023-04-12T08:42:35;11.70;;;6.00;;
34433;SDS011;34290;48.562;13.384;2023-04-12T08:45:03;11.32;;;5.95;;
34433;SDS011;34290;48.562;13.384;2023-04-12T08:47:31;13.45;;;6.03;;
34433;SDS011;34290;48.562;13.384;2023-04-12T08:50:01;13.40;;;5.80;;
34433;SDS011;34290;48.562;13.384;2023-04-12T08:52:30;13.95;;;5.68;;
34433;SDS011;34290;48.562;13.384;2023-04-12T08:55:00;12.90;;;6.13;;
34433;SDS011;34290;48.562;13.384;2023-04-12T08:57:28;11.73;;;5.60;;
34433;SDS011;34290;48.562;13.384;2023-04-12T08:59:56;11.20;;;5.70;;
34433;SDS011;34290;48.562;13.384;2023-04-12T09:02:25;11.05;;;5.97;;
34433;SDS011;34290;48.562;13.384;2023-04-12T09:04:52;12.35;;;5.65;;
34433;SDS011;34290;48.562;13.384;2023-04-12T09:07:21;14.27;;;5.18;;
34433;SDS011;34290;48.562;13.384;2023-04-12T09:09:52;10.65;;;5.45;;
34433;SDS011;34290;48.562;13.384;2023-04-12T09:12:20;12.20;;;6.05;;
34433;SDS011;34290;48.562;13.384;2023-04-12T09:14:48;14.50;;;6.35;;
34433;SDS011;34290;48.562;13.384;2023-04-12T09:17:32;11.52;;;5.85;;
34433;SDS011;34290;48.562;13.384;2023-04-12T09:20:01;9.85;;;5.38;;
34433;SDS011;34290;48.562;13.384;2023-04-12T09:22:33;12.82;;;6.40;;
34433;SDS011;34290;48.562;13.384;2023-04-12T09:25:01;11.23;;;5.50;;
34433;SDS011;34290;48.562;13.384;2023-04-12T09:27:29;14.27;;;6.40;;
34433;SDS011;34290;48.562;13.384;2023-04-12T09:30:05;13.68;;;5.45;;
34433;SDS011;34290;48.562;13.384;2023-04-12T09:32:33;10.83;;;6.30;;
34433;SDS011;34290;48.562;13.384;2023-04-12T09:35:00;14.73;;;5.53;;
34433;SDS011;34290;48.562;13.384;2023-04-12T09:37:30;13.93;;;6.20;;
34433;SDS011;34290;48.562;13.384;2023-04-12T09:39:59;13.23;;;6.50;;
34433;SDS011;34290;48.562;13.384;2023-04-12T09:42:27;12.43;;;6.50;;
34433;SDS011;34290;48.562;13.384;2023-04-12T09:44:55;15.57;;;7.40;;
34433;SDS011;34290;48.562;13.384;2023-04-12T09:47:22;15.37;;;7.63;;
34433;SDS011;34290;48.562;13.384;2023-04-12T09:50:02;16.93;;;7.60;;
34433;SDS011;34290;48.562;13.384;2023-04-12T09:52:35;15.10;;;7.70;;
34433;SDS011;34290;48.562;13.384;2023-04-12T09:55:03;13.17;;;7.30;;
34433;SDS011;34290;48.562;13.384;2023-04-12T09:57:35;18.50;;;7.30;;
34433;SDS011;34290;48.562;13.384;2023-04-12T10:00:04;14.57;;;6.77;;
34433;SDS011;34290;48.562;13.384;2023-04-12T10:02:36;16.20;;;6.23;;
34433;SDS011;34290;48.562;13.384;2023-04-12T10:05:05;10.40;;;5.60;;
34433;SDS011;34290;48.562;13.384;2023-04-12T10:07:35;15.30;;;6.63;;
34433;SDS011;34290;48.562;13.384;2023-04-12T10:10:05;12.02;;;6.53;;
34433;SDS011;34290;48.562;13.384;2023-04-12T10:12:34;12.65;;;5.88;;
34433;SDS011;34290;48.562;13.384;2023-04-12T10:15:03;11.77;;;5.83;;
34433;SDS011;34290;48.562;13.384;2023-04-12T10:17:31;10.80;;;5.57;;
34433;SDS011;34290;48.562;13.384;2023-04-12T10:20:00;13.30;;;5.50;;
34433;SDS011;34290;48.562;13.384;2023-04-12T10:22:28;9.97;;;5.83;;
34433;SDS011;34290;48.562;13.384;2023-04-12T10:24:56;12.13;;;5.40;;
34433;SDS011;34290;48.562;13.384;2023-04-12T10:27:25;10.87;;;5.50;;
34433;SDS011;34290;48.562;13.384;2023-04-12T10:29:52;9.45;;;4.90;;
34433;SDS011;34290;48.562;13.384;2023-04-12T10:32:20;10.60;;;5.50;;
34433;SDS011;34290;48.562;13.384;2023-04-12T10:34:51;10.90;;;6.20;;
34433;SDS011;34290;48.562;13.384;2023-04-12T10:37:20;12.07;;;5.90;;
34433;SDS011;34290;48.562;13.384;2023-04-12T10:40:07;11.10;;;5.90;;
34433;SDS011;34290;48.562;13.384;2023-04-12T10:42:43;11.40;;;5.07;;
34433;SDS011;34290;48.562;13.384;2023-04-12T10:48:02;35.40;;;11.87;;
34433;SDS011;34290;48.562;13.384;2023-04-12T10:50:31;84.23;;;26.23;;
34433;SDS011;34290;48.562;13.384;2023-04-12T10:55:57;5.50;;;3.73;;
34433;SDS011;34290;48.562;13.384;2023-04-12T11:01:25;5.70;;;2.85;;
34433;SDS011;34290;48.562;13.384;2023-04-12T11:04:09;7.47;;;4.00;;
34433;SDS011;34290;48.562;13.384;2023-04-12T11:09:26;7.40;;;4.07;;
34433;SDS011;34290;48.562;13.384;2023-04-12T11:12:09;7.30;;;3.97;;
34433;SDS011;34290;48.562;13.384;2023-04-12T11:14:41;8.90;;;3.87;;
34433;SDS011;34290;48.562;13.384;2023-04-12T11:17:20;7.87;;;3.90;;
34433;SDS011;34290;48.562;13.384;2023-04-12T11:19:49;9.63;;;4.50;;
34433;SDS011;34290;48.562;13.384;2023-04-12T11:22:18;7.10;;;4.23;;
34433;SDS011;34290;48.562;13.384;2023-04-12T11:24:46;9.07;;;4.60;;
34433;SDS011;34290;48.562;13.384;2023-04-12T11:27:17;9.80;;;4.03;;
34433;SDS011;34290;48.562;13.384;2023-04-12T11:29:46;9.63;;;4.70;;
34433;SDS011;34290;48.562;13.384;2023-04-12T11:32:14;7.67;;;4.00;;
34433;SDS011;34290;48.562;13.384;2023-04-12T11:34:42;8.38;;;4.40;;
34433;SDS011;34290;48.562;13.384;2023-04-12T11:37:11;7.27;;;4.30;;
34433;SDS011;34290;48.562;13.384;2023-04-12T11:39:39;7.37;;;3.87;;
34433;SDS011;34290;48.562;13.384;2023-04-12T11:42:11;9.43;;;4.20;;
34433;SDS011;34290;48.562;13.384;2023-04-12T11:44:41;8.90;;;4.17;;
34433;SDS011;34290;48.562;13.384;2023-04-12T11:47:13;12.10;;;4.57;;
34433;SDS011;34290;48.562;13.384;2023-04-12T11:49:45;11.20;;;4.40;;
34433;SDS011;34290;48.562;13.384;2023-04-12T11:52:13;7.43;;;3.40;;
34433;SDS011;34290;48.562;13.384;2023-04-12T11:54:42;8.93;;;3.80;;
34433;SDS011;34290;48.562;13.384;2023-04-12T11:57:10;6.53;;;3.77;;
34433;SDS011;34290;48.562;13.384;2023-04-12T11:59:43;5.70;;;3.90;;
34433;SDS011;34290;48.562;13.384;2023-04-12T12:02:11;9.53;;;4.10;;
34433;SDS011;34290;48.562;13.384;2023-04-12T12:04:40;8.90;;;3.70;;
34433;SDS011;34290;48.562;13.384;2023-04-12T12:07:10;5.80;;;3.60;;
34433;SDS011;34290;48.562;13.384;2023-04-12T12:09:38;10.67;;;4.33;;
34433;SDS011;34290;48.562;13.384;2023-04-12T12:12:05;7.23;;;3.70;;
34433;SDS011;34290;48.562;13.384;2023-04-12T12:14:33;6.50;;;4.00;;
34433;SDS011;34290;48.562;13.384;2023-04-12T12:17:07;8.60;;;3.80;;
34433;SDS011;34290;48.562;13.384;2023-04-12T12:19:36;7.60;;;4.10;;
34433;SDS011;34290;48.562;13.384;2023-04-12T12:22:05;7.63;;;4.28;;
34433;SDS011;34290;48.562;13.384;2023-04-12T12:24:34;8.32;;;4.22;;
34433;SDS011;34290;48.562;13.384;2023-04-12T12:27:02;6.70;;;3.77;;
34433;SDS011;34290;48.562;13.384;2023-04-12T12:29:35;11.53;;;4.20;;
34433;SDS011;34290;48.562;13.384;2023-04-12T12:32:09;9.87;;;4.30;;
34433;SDS011;34290;48.562;13.384;2023-04-12T12:34:38;8.87;;;4.20;;
34433;SDS011;34290;48.562;13.384;2023-04-12T12:37:11;7.93;;;4.10;;
34433;SDS011;34290;48.562;13.384;2023-04-12T12:39:38;7.77;;;4.07;;
34433;SDS011;34290;48.562;13.384;2023-04-12T12:42:24;7.00;;;3.87;;
34433;SDS011;34290;48.562;13.384;2023-04-12T12:44:52;7.00;;;4.07;;
34433;SDS011;34290;48.562;13.384;2023-04-12T12:47:20;7.63;;;3.90;;
34433;SDS011;34290;48.562;13.384;2023-04-12T12:49:47;12.47;;;3.80;;
34433;SDS011;34290;48.562;13.384;2023-04-12T12:52:14;9.50;;;3.97;;
34433;SDS011;34290;48.562;13.384;2023-04-12T12:54:41;7.63;;;4.20;;
34433;SDS011;34290;48.562;13.384;2023-04-12T12:57:09;8.55;;;4.10;;
34433;SDS011;34290;48.562;13.384;2023-04-12T12:59:36;10.40;;;3.85;;
34433;SDS011;34290;48.562;13.384;2023-04-12T13:02:03;7.23;;;4.17;;
34433;SDS011;34290;48.562;13.384;2023-04-12T13:04:32;6.97;;;4.00;;
34433;SDS011;34290;48.562;13.384;2023-04-12T13:06:59;8.93;;;4.33;;
34433;SDS011;34290;48.562;13.384;2023-04-12T13:09:26;7.88;;;4.45;;
34433;SDS011;34290;48.562;13.384;2023-04-12T13:11:53;7.83;;;4.20;;
34433;SDS011;34290;48.562;13.384;2023-04-12T13:14:21;7.53;;;4.68;;
34433;SDS011;34290;48.562;13.384;2023-04-12T13:16:48;8.20;;;4.40;;
34433;SDS011;34290;48.562;13.384;2023-04-12T13:19:15;9.38;;;4.10;;
34433;SDS011;34290;48.562;13.384;2023-04-12T13:21:43;6.63;;;4.20;;
34433;SDS011;34290;48.562;13.384;2023-04-12T13:24:11;6.07;;;3.80;;
34433;SDS011;34290;48.562;13.384;2023-04-12T13:26:38;9.88;;;3.42;;
34433;SDS011;34290;48.562;13.384;2023-04-12T13:29:05;5.95;;;3.70;;
34433;SDS011;34290;48.562;13.384;2023-04-12T13:31:32;5.68;;;3.63;;
34433;SDS011;34290;48.562;13.384;2023-04-12T13:33:59;5.68;;;4.00;;
34433;SDS011;34290;48.562;13.384;2023-04-12T13:36:26;8.73;;;3.78;;
34433;SDS011;34290;48.562;13.384;2023-04-12T13:38:56;6.40;;;3.85;;
34433;SDS011;34290;48.562;13.384;2023-04-12T13:41:24;7.13;;;4.00;;
34433;SDS011;34290;48.562;13.384;2023-04-12T13:43:51;7.97;;;3.50;;
34433;SDS011;34290;48.562;13.384;2023-04-12T13:46:18;6.18;;;3.90;;
34433;SDS011;34290;48.562;13.384;2023-04-12T13:48:45;6.97;;;3.70;;
34433;SDS011;34290;48.562;13.384;2023-04-12T13:51:12;5.88;;;3.80;;
34433;SDS011;34290;48.562;13.384;2023-04-12T13:53:39;6.38;;;3.88;;
34433;SDS011;34290;48.562;13.384;2023-04-12T13:56:08;7.75;;;4.03;;
34433;SDS011;34290;48.562;13.384;2023-04-12T13:58:35;8.50;;;4.05;;
34433;SDS011;34290;48.562;13.384;2023-04-12T14:01:04;6.60;;;4.00;;
34433;SDS011;34290;48.562;13.384;2023-04-12T14:03:31;4.90;;;3.20;;
34433;SDS011;34290;48.562;13.384;2023-04-12T14:05:58;6.15;;;3.58;;
34433;SDS011;34290;48.562;13.384;2023-04-12T14:08:28;6.13;;;3.05;;
34433;SDS011;34290;48.562;13.384;2023-04-12T14:10:55;9.27;;;3.75;;
34433;SDS011;34290;48.562;13.384;2023-04-12T14:13:24;8.10;;;3.40;;
34433;SDS011;34290;48.562;13.384;2023-04-12T14:15:52;6.38;;;3.70;;
34433;SDS011;34290;48.562;13.384;2023-04-12T14:18:19;8.23;;;4.07;;
34433;SDS011;34290;48.562;13.384;2023-04-12T14:20:47;7.97;;;3.73;;
34433;SDS011;34290;48.562;13.384;2023-04-12T14:23:16;5.35;;;3.30;;
34433;SDS011;34290;48.562;13.384;2023-04-12T14:25:43;6.30;;;3.85;;
34433;SDS011;34290;48.562;13.384;2023-04-12T14:28:10;8.83;;;4.10;;
34433;SDS011;34290;48.562;13.384;2023-04-12T14:30:42;5.78;;;3.47;;
34433;SDS011;34290;48.562;13.384;2023-04-12T14:33:09;8.57;;;3.80;;
34433;SDS011;34290;48.562;13.384;2023-04-12T14:35:36;6.43;;;3.70;;
34433;SDS011;34290;48.562;13.384;2023-04-12T14:38:03;6.95;;;3.47;;
34433;SDS011;34290;48.562;13.384;2023-04-12T14:40:30;6.47;;;4.00;;
34433;SDS011;34290;48.562;13.384;2023-04-12T14:42:58;6.68;;;3.67;;